createdAt,value
2022-10-04T00:00:11.585Z,51.86
2022-10-04T00:02:45.969Z,51.85
2022-10-04T00:05:17.818Z,51.84
2022-10-04T00:07:51.110Z,51.91
2022-10-04T00:10:25.205Z,51.87
2022-10-04T00:12:59.454Z,51.86
2022-10-04T00:15:30.948Z,51.96
2022-10-04T00:18:29.309Z,51.96
2022-10-04T00:21:05.290Z,51.75
2022-10-04T00:23:46.098Z,52.00
2022-10-04T00:27:12.782Z,52.30
2022-10-04T00:29:43.198Z,52.10
2022-10-04T00:32:30.327Z,52.26
2022-10-04T00:35:00.537Z,52.27
2022-10-04T00:37:55.100Z,52.19
2022-10-04T00:40:24.490Z,52.35
2022-10-04T00:42:59.525Z,52.26
2022-10-04T00:45:37.574Z,52.28
2022-10-04T00:48:34.602Z,52.40
2022-10-04T00:51:14.359Z,52.38
2022-10-04T00:54:05.468Z,52.33
2022-10-04T00:56:42.231Z,52.39
2022-10-04T00:59:28.478Z,52.39
2022-10-04T01:02:02.512Z,52.35
2022-10-04T01:04:42.594Z,52.56
2022-10-04T01:07:13.147Z,52.42
2022-10-04T01:09:48.264Z,52.48
2022-10-04T01:12:29.359Z,52.51
2022-10-04T01:15:07.469Z,52.47
2022-10-04T01:17:35.729Z,52.50
2022-10-04T01:20:05.356Z,52.48
2022-10-04T01:22:44.656Z,52.33
2022-10-04T01:25:48.093Z,52.34
2022-10-04T01:28:16.955Z,52.47
2022-10-04T01:30:46.307Z,52.43
2022-10-04T01:33:15.132Z,52.56
2022-10-04T01:35:43.401Z,52.58
2022-10-04T01:38:13.258Z,52.37
2022-10-04T01:40:47.687Z,52.43
2022-10-04T01:43:24.050Z,52.41
2022-10-04T01:45:57.016Z,52.55
2022-10-04T01:48:32.219Z,52.41
2022-10-04T01:51:04.573Z,52.49
2022-10-04T01:53:42.585Z,52.63
2022-10-04T01:56:15.440Z,52.62
2022-10-04T01:58:48.350Z,52.56
2022-10-04T02:01:23.997Z,52.54
2022-10-04T02:03:58.963Z,52.47
2022-10-04T02:06:28.161Z,52.73
2022-10-04T02:08:59.330Z,52.54
2022-10-04T02:11:31.347Z,52.60
2022-10-04T02:14:01.215Z,52.55
2022-10-04T02:16:29.787Z,52.61
2022-10-04T02:18:58.796Z,52.68
2022-10-04T02:21:27.223Z,52.55
2022-10-04T02:23:57.281Z,52.67
2022-10-04T02:26:25.532Z,52.60
2022-10-04T02:28:53.794Z,52.52
2022-10-04T02:31:41.513Z,52.55
2022-10-04T02:34:10.383Z,52.60
2022-10-04T02:36:39.545Z,52.57
2022-10-04T02:39:15.851Z,52.70
2022-10-04T02:41:49.042Z,52.96
2022-10-04T02:44:22.895Z,52.91
2022-10-04T02:46:56.595Z,52.81
2022-10-04T02:49:33.172Z,52.72
2022-10-04T02:52:07.549Z,52.91
2022-10-04T02:54:44.317Z,52.82
2022-10-04T02:57:18.068Z,52.82
2022-10-04T02:59:46.968Z,52.87
2022-10-04T03:02:30.077Z,52.82
2022-10-04T03:05:07.005Z,52.92
2022-10-04T03:07:37.401Z,52.90
2022-10-04T03:10:12.458Z,52.97
2022-10-04T03:12:41.589Z,52.84
2022-10-04T03:15:12.971Z,52.78
2022-10-04T03:17:43.135Z,52.86
2022-10-04T03:20:14.670Z,52.85
2022-10-04T03:22:47.022Z,52.83
2022-10-04T03:25:21.915Z,52.82
2022-10-04T03:27:52.086Z,52.90
2022-10-04T03:30:21.065Z,52.99
2022-10-04T03:32:50.763Z,53.02
2022-10-04T03:35:28.064Z,53.10
2022-10-04T03:37:58.104Z,53.10
2022-10-04T03:40:31.711Z,53.28
2022-10-04T03:43:02.212Z,53.08
2022-10-04T03:45:31.074Z,53.17
2022-10-04T03:48:06.874Z,53.23
2022-10-04T03:50:41.857Z,53.17
2022-10-04T03:53:17.282Z,53.36
2022-10-04T03:55:47.573Z,53.26
2022-10-04T03:58:19.235Z,53.31
2022-10-04T04:01:04.951Z,53.41
2022-10-04T04:03:46.079Z,53.37
2022-10-04T04:06:18.358Z,53.33
2022-10-04T04:08:50.352Z,53.25
2022-10-04T04:11:25.981Z,53.20
2022-10-04T04:14:04.666Z,53.17
2022-10-04T04:16:33.565Z,53.19
2022-10-04T04:19:05.450Z,53.23
2022-10-04T04:21:34.395Z,53.27
2022-10-04T04:24:07.867Z,53.39
2022-10-04T04:26:43.759Z,53.44
2022-10-04T04:29:20.228Z,53.58
2022-10-04T04:31:55.682Z,53.50
2022-10-04T04:34:29.965Z,53.64
2022-10-04T04:37:01.308Z,53.52
2022-10-04T04:39:41.143Z,53.76
2022-10-04T04:42:18.991Z,53.90
2022-10-04T04:44:50.411Z,53.96
2022-10-04T04:47:29.602Z,54.13
2022-10-04T04:50:05.821Z,54.25
2022-10-04T04:52:35.070Z,54.16
2022-10-04T04:55:04.352Z,54.22
2022-10-04T04:57:34.660Z,54.37
2022-10-04T05:00:03.851Z,54.46
2022-10-04T05:02:35.523Z,54.49
2022-10-04T05:05:23.446Z,54.32
2022-10-04T05:08:05.344Z,54.43
2022-10-04T05:10:35.316Z,54.72
2022-10-04T05:13:07.836Z,54.52
2022-10-04T05:15:38.785Z,54.44
2022-10-04T05:18:24.543Z,54.39
2022-10-04T05:20:55.603Z,54.57
2022-10-04T05:23:24.056Z,54.64
2022-10-04T05:25:53.281Z,54.53
2022-10-04T05:28:23.059Z,54.50
2022-10-04T05:31:13.894Z,54.76
2022-10-04T05:33:50.617Z,54.76
2022-10-04T05:36:51.100Z,55.00
2022-10-04T05:39:28.413Z,55.13
2022-10-04T05:42:03.477Z,55.23
2022-10-04T05:44:38.745Z,55.29
2022-10-04T05:47:09.407Z,55.40
2022-10-04T05:49:45.168Z,55.47
2022-10-04T05:52:18.023Z,55.56
2022-10-04T05:54:46.309Z,55.55
2022-10-04T05:57:35.430Z,55.74
2022-10-04T06:00:16.137Z,55.83
2022-10-04T06:03:28.609Z,55.83
2022-10-04T06:06:02.179Z,55.95
2022-10-04T06:08:44.777Z,56.08
2022-10-04T06:11:29.499Z,56.14
2022-10-04T06:14:48.400Z,56.18
2022-10-04T06:17:35.504Z,56.37
2022-10-04T06:20:38.519Z,56.49
2022-10-04T06:23:15.083Z,56.63
2022-10-04T06:25:49.949Z,56.64
2022-10-04T06:28:25.187Z,56.77
2022-10-04T06:31:18.435Z,56.81
2022-10-04T06:34:32.353Z,57.06
2022-10-04T06:37:15.943Z,57.25
2022-10-04T06:40:22.224Z,57.23
2022-10-04T06:43:09.735Z,57.26
2022-10-04T06:46:00.042Z,57.28
2022-10-04T06:49:18.556Z,57.21
2022-10-04T06:52:03.187Z,57.09
2022-10-04T06:54:53.176Z,57.17
2022-10-04T06:58:02.455Z,57.13
2022-10-04T07:00:35.234Z,57.23
2022-10-04T07:03:12.372Z,57.07
2022-10-04T07:05:47.408Z,57.36
2022-10-04T07:08:32.480Z,57.51
2022-10-04T07:11:06.539Z,57.57
2022-10-04T07:13:48.838Z,57.70
2022-10-04T07:16:32.107Z,57.83
2022-10-04T07:19:13.588Z,57.81
2022-10-04T07:21:50.508Z,57.73
2022-10-04T07:24:28.194Z,57.63
2022-10-04T07:26:57.670Z,57.59
2022-10-04T07:29:32.434Z,57.84
2022-10-04T07:32:12.579Z,57.77
2022-10-04T07:34:47.052Z,58.01
2022-10-04T07:37:16.432Z,58.34
2022-10-04T07:39:54.143Z,58.37
2022-10-04T07:42:33.695Z,58.67
2022-10-04T07:45:15.233Z,58.90
2022-10-04T07:47:43.801Z,59.29
2022-10-04T07:50:24.998Z,59.64
2022-10-04T07:52:58.950Z,59.57
2022-10-04T07:55:45.244Z,59.18
2022-10-04T07:58:34.894Z,58.51
2022-10-04T08:01:08.655Z,58.14
2022-10-04T08:03:52.558Z,57.68
2022-10-04T08:06:34.733Z,57.46
2022-10-04T08:09:29.961Z,57.25
2022-10-04T08:12:09.949Z,57.09
2022-10-04T08:14:55.900Z,57.15
2022-10-04T08:17:41.840Z,57.04
2022-10-04T08:20:32.054Z,56.77
2022-10-04T08:23:22.119Z,56.91
2022-10-04T08:26:02.317Z,56.89
2022-10-04T08:28:59.934Z,57.02
2022-10-04T08:31:41.680Z,56.94
2022-10-04T08:34:34.699Z,56.90
2022-10-04T08:37:18.555Z,56.85
2022-10-04T08:39:59.581Z,56.99
2022-10-04T08:43:03.841Z,56.84
2022-10-04T08:46:33.819Z,57.05
2022-10-04T08:50:08.464Z,56.97
2022-10-04T08:53:13.630Z,57.32
2022-10-04T08:55:58.553Z,57.28
2022-10-04T08:58:49.000Z,57.29
2022-10-04T09:01:47.486Z,57.05
2022-10-04T09:05:04.343Z,57.20
2022-10-04T09:08:34.353Z,57.24
2022-10-04T09:11:31.820Z,57.38
2022-10-04T09:14:40.984Z,57.48
2022-10-04T09:17:22.800Z,57.29
2022-10-04T09:20:33.427Z,56.96
2022-10-04T09:23:06.420Z,56.55
2022-10-04T09:26:01.203Z,56.10
2022-10-04T09:29:16.031Z,55.50
2022-10-04T09:32:26.650Z,54.90
2022-10-04T09:35:19.488Z,54.72
2022-10-04T09:38:20.369Z,54.55
2022-10-04T09:41:28.162Z,54.34
2022-10-04T09:44:48.506Z,54.21
2022-10-04T09:47:40.994Z,54.25
2022-10-04T09:50:42.725Z,54.30
2022-10-04T09:53:36.165Z,54.12
2022-10-04T09:56:50.310Z,54.13
2022-10-04T09:59:50.474Z,53.96
2022-10-04T10:03:20.872Z,53.86
2022-10-04T10:06:37.550Z,53.89
2022-10-04T10:09:43.967Z,53.95
2022-10-04T10:12:59.034Z,53.59
2022-10-04T10:15:38.862Z,53.33
2022-10-04T10:18:22.922Z,53.38
2022-10-04T10:21:14.939Z,53.56
2022-10-04T10:24:20.766Z,53.68
2022-10-04T10:27:32.606Z,53.51
2022-10-04T10:30:17.520Z,53.42
2022-10-04T10:33:17.315Z,53.17
2022-10-04T10:43:33.576Z,54.49
2022-10-04T10:46:27.156Z,54.14
2022-10-04T10:49:34.362Z,53.88
2022-10-04T10:53:14.250Z,53.54
2022-10-04T10:56:37.231Z,53.08
2022-10-04T11:00:11.110Z,52.89
2022-10-04T11:03:31.134Z,52.61
2022-10-04T11:06:41.832Z,51.87
2022-10-04T11:09:31.488Z,51.60
2022-10-04T11:12:47.885Z,51.54
2022-10-04T11:16:21.984Z,50.80
2022-10-04T11:20:09.521Z,51.10
2022-10-04T11:23:43.331Z,50.39
2022-10-04T11:27:15.915Z,50.15
2022-10-04T11:30:24.692Z,49.68
2022-10-04T11:33:39.106Z,49.09
2022-10-04T11:36:37.111Z,48.85
2022-10-04T11:39:53.734Z,48.73
2022-10-04T11:42:44.012Z,47.93
2022-10-04T11:45:39.755Z,47.36
2022-10-04T11:48:30.128Z,47.07
2022-10-04T11:51:29.375Z,46.76
2022-10-04T11:54:30.213Z,46.18
2022-10-04T11:57:32.619Z,46.48
2022-10-04T12:00:14.339Z,45.18
2022-10-04T12:03:02.766Z,44.62
2022-10-04T12:05:53.371Z,44.32
2022-10-04T12:08:47.102Z,44.22
2022-10-04T12:12:24.086Z,43.98
2022-10-04T12:15:49.403Z,44.32
2022-10-04T12:18:53.036Z,43.23
2022-10-04T12:21:53.323Z,43.46
2022-10-04T12:25:04.464Z,43.10
2022-10-04T12:28:37.851Z,43.42
2022-10-04T12:31:23.782Z,41.71
2022-10-04T12:34:02.282Z,41.26
2022-10-04T12:37:06.460Z,41.23
2022-10-04T12:40:09.239Z,41.11
2022-10-04T12:42:51.037Z,40.78
2022-10-04T12:45:48.195Z,40.97
2022-10-04T12:48:49.153Z,40.14
2022-10-04T12:51:36.986Z,40.10
2022-10-04T12:54:31.399Z,39.88
2022-10-04T12:57:24.042Z,39.44
2022-10-04T13:00:15.403Z,39.09
2022-10-04T13:03:18.055Z,39.12
2022-10-04T13:06:02.888Z,39.22
2022-10-04T13:09:01.975Z,39.34
2022-10-04T13:12:02.152Z,38.25
2022-10-04T13:14:58.403Z,38.56
2022-10-04T13:17:41.256Z,38.25
2022-10-04T13:20:44.979Z,38.40
2022-10-04T13:23:28.435Z,38.16
2022-10-04T13:26:28.565Z,38.22
2022-10-04T13:29:04.983Z,37.64
2022-10-04T13:31:39.782Z,37.44
2022-10-04T13:34:26.085Z,37.00
2022-10-04T13:37:12.809Z,37.42
2022-10-04T13:40:29.989Z,37.89
2022-10-04T13:43:28.579Z,37.72
2022-10-04T13:46:15.769Z,37.71
2022-10-04T13:48:56.399Z,36.88
2022-10-04T13:52:13.886Z,37.48
2022-10-04T13:55:09.655Z,37.34
2022-10-04T13:57:49.384Z,37.08
2022-10-04T14:00:40.206Z,36.79
2022-10-04T14:03:36.130Z,36.62
2022-10-04T14:06:48.266Z,36.39
2022-10-04T14:10:07.151Z,36.32
2022-10-04T14:13:36.508Z,36.40
2022-10-04T14:16:46.042Z,36.40
2022-10-04T14:20:05.663Z,36.67
2022-10-04T14:23:07.317Z,36.70
2022-10-04T14:26:09.354Z,36.93
2022-10-04T14:29:29.526Z,37.14
2022-10-04T14:33:00.081Z,37.40
2022-10-04T14:35:31.510Z,37.37
2022-10-04T14:38:39.598Z,37.42
2022-10-04T14:41:56.713Z,37.58
2022-10-04T14:44:54.261Z,38.23
2022-10-04T14:47:42.883Z,38.33
2022-10-04T14:50:28.026Z,38.62
2022-10-04T14:53:13.632Z,38.43
2022-10-04T14:56:24.142Z,38.82
2022-10-04T14:59:18.003Z,38.66
2022-10-04T15:02:35.724Z,39.04
2022-10-04T15:06:00.167Z,39.27
2022-10-04T15:09:24.584Z,39.40
2022-10-04T15:12:25.352Z,39.64
2022-10-04T15:15:25.161Z,39.32
2022-10-04T15:18:04.106Z,39.88
2022-10-04T15:20:49.494Z,40.24
2022-10-04T15:23:30.709Z,40.27
2022-10-04T15:26:08.206Z,40.31
2022-10-04T15:28:56.836Z,40.67
2022-10-04T15:31:31.883Z,40.75
2022-10-04T15:34:09.696Z,41.11
2022-10-04T15:37:09.874Z,41.13
2022-10-04T15:40:30.845Z,41.19
2022-10-04T15:43:26.086Z,41.53
2022-10-04T15:46:38.612Z,41.70
2022-10-04T15:49:26.856Z,41.72
2022-10-04T15:52:34.501Z,42.00
2022-10-04T15:55:19.409Z,41.89
2022-10-04T15:58:18.181Z,41.97
2022-10-04T16:00:59.145Z,42.49
2022-10-04T16:03:43.383Z,42.50
2022-10-04T16:06:23.103Z,42.83
2022-10-04T16:09:15.702Z,42.83
2022-10-04T16:12:00.600Z,42.73
2022-10-04T16:14:53.558Z,43.14
2022-10-04T16:17:53.214Z,43.09
2022-10-04T16:20:57.487Z,43.03
2022-10-04T16:23:32.561Z,43.47
2022-10-04T16:26:03.724Z,43.41
2022-10-04T16:29:00.877Z,43.55
2022-10-04T16:31:48.979Z,43.62
2022-10-04T16:34:51.315Z,43.77
2022-10-04T16:37:39.946Z,44.17
2022-10-04T16:40:32.311Z,44.21
2022-10-04T16:43:04.709Z,44.36
2022-10-04T16:45:44.945Z,44.77
2022-10-04T16:48:38.722Z,44.80
2022-10-04T16:51:34.280Z,44.98
2022-10-04T16:54:28.322Z,45.20
2022-10-04T16:57:19.662Z,45.25
2022-10-04T16:59:53.370Z,45.30
2022-10-04T17:02:53.528Z,45.43
2022-10-04T17:05:38.395Z,45.53
2022-10-04T17:08:44.315Z,45.70
2022-10-04T17:11:35.934Z,45.69
2022-10-04T17:14:29.855Z,45.85
2022-10-04T17:17:03.025Z,45.95
2022-10-04T17:19:37.812Z,46.03
2022-10-04T17:22:25.345Z,46.14
2022-10-04T17:25:05.617Z,46.08
2022-10-04T17:27:49.199Z,46.26
2022-10-04T17:30:22.741Z,46.35
2022-10-04T17:33:09.042Z,46.45
2022-10-04T17:36:14.252Z,46.40
2022-10-04T17:38:56.433Z,46.43
2022-10-04T17:41:42.237Z,46.55
2022-10-04T17:44:43.838Z,46.38
2022-10-04T17:47:23.642Z,46.47
2022-10-04T17:50:35.955Z,46.47
2022-10-04T17:53:31.843Z,46.50
2022-10-04T17:56:04.296Z,46.65
2022-10-04T17:58:44.038Z,46.63
2022-10-04T18:01:17.588Z,46.58
2022-10-04T18:03:54.773Z,46.49
2022-10-04T18:06:34.560Z,46.48
2022-10-04T18:09:10.289Z,46.52
2022-10-04T18:11:48.564Z,46.68
2022-10-04T18:14:47.935Z,46.57
2022-10-04T18:17:31.037Z,46.65
2022-10-04T18:20:26.471Z,46.69
2022-10-04T18:23:05.273Z,46.65
2022-10-04T18:25:44.894Z,46.74
2022-10-04T18:28:21.691Z,46.75
2022-10-04T18:30:59.140Z,47.00
2022-10-04T18:33:47.804Z,46.92
2022-10-04T18:36:22.351Z,47.02
2022-10-04T18:39:05.603Z,47.06
2022-10-04T18:41:51.275Z,47.02
2022-10-04T18:44:23.377Z,47.12
2022-10-04T18:46:58.502Z,46.96
2022-10-04T18:49:31.004Z,47.12
2022-10-04T18:52:21.477Z,47.16
2022-10-04T18:55:01.161Z,47.30
2022-10-04T18:57:54.723Z,47.46
2022-10-04T19:00:41.488Z,47.44
2022-10-04T19:03:22.609Z,47.54
2022-10-04T19:06:02.217Z,47.52
2022-10-04T19:08:47.981Z,47.58
2022-10-04T19:11:21.676Z,47.70
2022-10-04T19:13:59.136Z,47.78
2022-10-04T19:16:40.028Z,47.72
2022-10-04T19:19:43.753Z,47.57
2022-10-04T19:22:28.945Z,47.62
2022-10-04T19:25:26.349Z,47.61
2022-10-04T19:28:03.162Z,47.91
2022-10-04T19:30:53.146Z,47.98
2022-10-04T19:33:34.722Z,48.11
2022-10-04T19:36:33.232Z,48.14
2022-10-04T19:39:18.125Z,48.16
2022-10-04T19:41:59.179Z,48.24
2022-10-04T19:44:47.665Z,48.16
2022-10-04T19:47:40.392Z,48.32
2022-10-04T19:50:21.348Z,48.36
2022-10-04T19:52:54.412Z,48.37
2022-10-04T19:55:29.043Z,48.22
2022-10-04T19:58:10.144Z,48.42
2022-10-04T20:00:38.440Z,48.47
2022-10-04T20:03:13.099Z,48.58
2022-10-04T20:05:46.703Z,48.74
2022-10-04T20:08:17.446Z,48.75
2022-10-04T20:10:45.815Z,48.76
2022-10-04T20:13:24.138Z,48.64
2022-10-04T20:16:00.216Z,48.63
2022-10-04T20:19:05.722Z,48.56
2022-10-04T20:21:34.124Z,48.70
2022-10-04T20:24:02.785Z,48.58
2022-10-04T20:26:56.560Z,48.88
2022-10-04T20:30:06.524Z,48.51
2022-10-04T20:32:58.466Z,48.90
2022-10-04T20:36:09.932Z,48.68
2022-10-04T20:38:52.067Z,48.90
2022-10-04T20:42:20.418Z,48.84
2022-10-04T20:44:57.858Z,49.00
2022-10-04T20:47:49.515Z,49.19
2022-10-04T20:50:37.187Z,49.08
2022-10-04T20:53:15.156Z,49.30
2022-10-04T20:55:45.520Z,49.27
2022-10-04T21:01:42.362Z,49.58
2022-10-04T21:04:15.806Z,49.69
2022-10-04T21:06:53.996Z,49.60
2022-10-04T21:09:23.084Z,49.50
2022-10-04T21:11:53.630Z,49.50
2022-10-04T21:14:26.384Z,49.51
2022-10-04T21:17:01.405Z,49.50
2022-10-04T21:19:52.976Z,49.65
2022-10-04T21:22:40.700Z,49.51
2022-10-04T21:25:42.159Z,49.45
2022-10-04T21:28:33.845Z,49.70
2022-10-04T21:31:03.297Z,49.61
2022-10-04T21:33:35.940Z,49.48
2022-10-04T21:36:07.395Z,49.40
2022-10-04T21:38:35.690Z,49.45
2022-10-04T21:41:04.658Z,49.70
2022-10-04T21:43:33.157Z,49.79
2022-10-04T21:46:01.792Z,49.83
2022-10-04T21:48:30.193Z,49.77
2022-10-04T21:50:58.472Z,49.57
2022-10-04T21:53:28.116Z,49.70
2022-10-04T21:55:56.367Z,49.82
2022-10-04T21:58:24.617Z,49.83
2022-10-04T22:00:52.880Z,49.91
2022-10-04T22:03:21.147Z,49.83
2022-10-04T22:05:49.447Z,49.88
2022-10-04T22:08:17.810Z,49.94
2022-10-04T22:10:48.157Z,49.98
2022-10-04T22:13:16.643Z,50.10
2022-10-04T22:15:44.990Z,50.11
2022-10-04T22:18:13.217Z,50.02
2022-10-04T22:20:41.477Z,50.08
2022-10-04T22:23:17.983Z,50.03
2022-10-04T22:25:47.916Z,50.12
2022-10-04T22:28:23.763Z,50.08
2022-10-04T22:30:53.317Z,50.21
2022-10-04T22:33:32.234Z,50.24
2022-10-04T22:36:12.290Z,50.18
2022-10-04T22:38:40.817Z,50.08
2022-10-04T22:41:13.691Z,50.26
2022-10-04T22:43:42.027Z,50.41
2022-10-04T22:46:16.085Z,50.34
2022-10-04T22:48:46.599Z,50.31
2022-10-04T22:51:14.981Z,50.40
2022-10-04T22:53:45.683Z,50.41
2022-10-04T22:56:16.367Z,50.52
2022-10-04T22:58:44.656Z,50.51
2022-10-04T23:01:16.267Z,50.55
2022-10-04T23:03:48.121Z,50.51
2022-10-04T23:06:16.620Z,50.61
2022-10-04T23:08:45.323Z,50.45
2022-10-04T23:11:15.099Z,50.52
2022-10-04T23:13:43.391Z,50.38
2022-10-04T23:16:15.445Z,50.55
2022-10-04T23:18:43.786Z,50.61
2022-10-04T23:21:32.902Z,50.65
2022-10-04T23:24:15.520Z,50.71
2022-10-04T23:26:48.906Z,50.64
2022-10-04T23:29:22.615Z,50.74
2022-10-04T23:31:52.546Z,50.74
2022-10-04T23:34:30.383Z,50.91
2022-10-04T23:36:59.220Z,50.80
2022-10-04T23:39:31.085Z,50.82
2022-10-04T23:42:03.419Z,50.87
2022-10-04T23:44:38.313Z,50.78
2022-10-04T23:47:13.805Z,50.89
2022-10-04T23:49:42.130Z,51.01
2022-10-04T23:52:16.492Z,51.09
2022-10-04T23:54:44.724Z,51.17
2022-10-04T23:57:26.279Z,51.05
2022-10-04T23:59:54.621Z,50.92
